createdAt,value
2017-05-03T04:00:49.539Z,176
2017-05-03T04:01:15.033Z,180
2017-05-03T04:01:40.569Z,188
2017-05-03T04:02:06.001Z,188
2017-05-03T04:02:31.455Z,188
2017-05-03T04:02:56.920Z,188
2017-05-03T04:03:22.362Z,200
2017-05-03T04:03:47.824Z,212
2017-05-03T04:04:13.292Z,224
2017-05-03T04:04:38.819Z,236
2017-05-03T04:05:04.247Z,236
2017-05-03T04:05:29.714Z,236
2017-05-03T04:05:55.198Z,240
2017-05-03T04:06:20.684Z,252
2017-05-03T04:06:46.168Z,260
2017-05-03T04:07:11.637Z,276
2017-05-03T04:07:37.142Z,284
2017-05-03T04:08:02.628Z,292
2017-05-03T04:08:28.101Z,304
2017-05-03T04:08:53.570Z,312
2017-05-03T04:09:19.056Z,320
2017-05-03T04:09:44.544Z,332
2017-05-03T04:10:10.036Z,340
2017-05-03T04:10:35.533Z,348
2017-05-03T04:11:01.009Z,352
2017-05-03T04:11:26.525Z,352
2017-05-03T04:11:52.007Z,348
2017-05-03T04:12:17.483Z,344
2017-05-03T04:12:42.983Z,344
2017-05-03T04:13:08.456Z,356
2017-05-03T04:13:33.870Z,372
2017-05-03T04:13:59.316Z,380
2017-05-03T04:14:24.808Z,400
2017-05-03T04:14:50.353Z,424
2017-05-03T04:15:15.816Z,444
2017-05-03T04:15:41.286Z,464
2017-05-03T04:16:06.840Z,484
2017-05-03T04:16:32.332Z,500
2017-05-03T04:16:57.874Z,512
2017-05-03T04:17:23.302Z,532
2017-05-03T04:17:48.803Z,540
2017-05-03T04:18:14.298Z,548
2017-05-03T04:18:39.745Z,560
2017-05-03T04:19:05.210Z,580
2017-05-03T04:19:30.666Z,608
2017-05-03T04:19:56.134Z,636
2017-05-03T04:20:21.585Z,656
2017-05-03T04:20:47.090Z,672
2017-05-03T04:21:12.611Z,676
2017-05-03T04:21:38.097Z,684
2017-05-03T04:22:03.645Z,692
2017-05-03T04:22:29.129Z,708
2017-05-03T04:22:54.597Z,724
2017-05-03T04:23:20.065Z,740
2017-05-03T04:23:45.533Z,744
2017-05-03T04:24:10.999Z,744
2017-05-03T04:24:36.470Z,744
2017-05-03T04:25:01.956Z,752
2017-05-03T04:25:27.480Z,748
2017-05-03T04:25:52.946Z,752
2017-05-03T04:26:18.425Z,748
2017-05-03T04:26:43.926Z,748
2017-05-03T04:27:09.409Z,756
2017-05-03T04:27:34.848Z,772
2017-05-03T04:28:00.328Z,804
2017-05-03T04:28:25.828Z,832
2017-05-03T04:28:51.300Z,868
2017-05-03T04:29:16.781Z,888
2017-05-03T04:29:42.268Z,896
2017-05-03T04:30:07.781Z,908
2017-05-03T04:30:33.240Z,916
2017-05-03T04:30:58.726Z,924
2017-05-03T04:31:24.196Z,920
2017-05-03T04:31:49.708Z,904
2017-05-03T04:32:15.172Z,884
2017-05-03T04:32:40.663Z,860
2017-05-03T04:33:06.116Z,844
2017-05-03T04:33:31.596Z,832
2017-05-03T04:33:57.039Z,812
2017-05-03T04:34:22.505Z,784
2017-05-03T04:34:47.959Z,740
2017-05-03T04:35:13.446Z,684
2017-05-03T04:35:38.947Z,624
2017-05-03T04:36:04.422Z,564
2017-05-03T04:36:29.957Z,536
2017-05-03T04:36:55.411Z,532
2017-05-03T04:37:20.916Z,544
2017-05-03T04:37:46.434Z,576
2017-05-03T04:38:11.900Z,604
2017-05-03T04:38:37.360Z,628
2017-05-03T04:39:02.838Z,620
2017-05-03T04:39:28.323Z,596
2017-05-03T04:39:53.806Z,576
2017-05-03T04:40:19.264Z,588
2017-05-03T04:40:44.735Z,600
2017-05-03T04:41:10.244Z,612
2017-05-03T04:41:35.759Z,636
2017-05-03T04:42:01.249Z,664
2017-05-03T04:42:26.705Z,668
2017-05-03T04:42:52.170Z,660
2017-05-03T04:43:17.633Z,652
2017-05-03T04:43:43.120Z,652
2017-05-03T04:44:08.692Z,660
2017-05-03T04:44:34.062Z,668
2017-05-03T04:44:59.548Z,660
2017-05-03T04:45:25.026Z,652
2017-05-03T04:45:50.503Z,644
2017-05-03T04:46:15.983Z,636
2017-05-03T04:46:41.498Z,612
2017-05-03T04:47:07.019Z,588
2017-05-03T04:47:32.521Z,556
2017-05-03T04:47:58.011Z,544
2017-05-03T04:48:23.459Z,532
2017-05-03T04:48:48.894Z,520
2017-05-03T04:49:14.413Z,504
2017-05-03T04:49:39.918Z,492
2017-05-03T04:50:05.359Z,476
2017-05-03T04:50:30.819Z,476
2017-05-03T04:50:56.346Z,472
2017-05-03T04:51:21.798Z,468
2017-05-03T04:51:47.256Z,456
2017-05-03T04:52:12.743Z,440
2017-05-03T04:52:38.212Z,420
2017-05-03T04:53:03.680Z,400
2017-05-03T04:53:29.221Z,388
2017-05-03T04:53:54.689Z,380
2017-05-03T04:54:20.164Z,372
2017-05-03T04:54:45.685Z,372
2017-05-03T04:55:11.150Z,368
2017-05-03T04:55:36.596Z,368
2017-05-03T04:56:02.113Z,384
2017-05-03T04:56:27.567Z,404
2017-05-03T04:56:53.012Z,412
2017-05-03T04:57:18.511Z,408
2017-05-03T04:57:43.985Z,404
2017-05-03T04:58:09.472Z,416
2017-05-03T04:58:34.931Z,428
2017-05-03T04:59:00.409Z,428
2017-05-03T04:59:25.921Z,428
2017-05-03T04:59:51.366Z,432
2017-05-03T05:00:16.833Z,444
2017-05-03T05:00:42.284Z,472
2017-05-03T05:01:07.767Z,488
2017-05-03T05:01:33.277Z,492
2017-05-03T05:01:58.759Z,512
2017-05-03T05:02:24.220Z,512
2017-05-03T05:02:49.677Z,520
2017-05-03T05:03:15.171Z,536
2017-05-03T05:03:40.627Z,560
2017-05-03T05:04:06.081Z,560
2017-05-03T05:04:31.543Z,568
2017-05-03T05:04:56.977Z,588
2017-05-03T05:05:22.459Z,604
2017-05-03T05:05:47.948Z,612
2017-05-03T05:06:13.406Z,616
2017-05-03T05:06:38.985Z,616
2017-05-03T05:07:04.434Z,608
2017-05-03T05:07:29.891Z,612
2017-05-03T05:07:55.403Z,604
2017-05-03T05:08:20.900Z,604
2017-05-03T05:08:46.370Z,604
2017-05-03T05:09:11.832Z,608
2017-05-03T05:09:37.316Z,612
2017-05-03T05:10:02.810Z,624
2017-05-03T05:10:28.304Z,628
2017-05-03T05:10:53.760Z,652
2017-05-03T05:11:19.241Z,656
2017-05-03T05:11:44.756Z,620
2017-05-03T05:12:10.233Z,556
2017-05-03T05:12:35.792Z,512
2017-05-03T05:13:01.251Z,504
2017-05-03T05:13:26.763Z,492
2017-05-03T05:13:52.251Z,480
2017-05-03T05:14:17.746Z,456
2017-05-03T05:14:43.276Z,440
2017-05-03T05:15:08.720Z,432
2017-05-03T05:15:34.194Z,416
2017-05-03T05:15:59.692Z,420
2017-05-03T05:16:25.169Z,412
2017-05-03T05:16:50.622Z,420
2017-05-03T05:17:16.087Z,420
2017-05-03T05:17:41.566Z,432
2017-05-03T05:18:07.055Z,440
2017-05-03T05:18:32.587Z,460
2017-05-03T05:18:58.026Z,500
2017-05-03T05:19:23.482Z,552
2017-05-03T05:19:49.022Z,632
2017-05-03T05:20:14.574Z,736
2017-05-03T05:20:40.145Z,800
2017-05-03T05:21:05.591Z,876
2017-05-03T05:21:31.030Z,880
2017-05-03T05:21:56.535Z,844
2017-05-03T05:22:22.020Z,824
2017-05-03T05:22:47.518Z,844
2017-05-03T05:23:13.479Z,876
2017-05-03T05:23:38.929Z,848
2017-05-03T05:24:04.445Z,848
2017-05-03T05:25:23.560Z,936
2017-05-03T05:25:49.003Z,948
2017-05-03T05:26:14.522Z,916
2017-05-03T05:26:40.123Z,916
2017-05-03T05:27:05.647Z,960
2017-05-03T05:27:31.110Z,952
2017-05-03T05:27:56.658Z,996
2017-05-03T05:28:22.180Z,1100
2017-05-03T05:28:47.645Z,1196
2017-05-03T05:29:13.134Z,1336
2017-05-03T05:29:38.713Z,1432
2017-05-03T05:30:04.196Z,1472
2017-05-03T05:30:29.715Z,1524
2017-05-03T05:30:55.213Z,1568
2017-05-03T05:31:20.736Z,1532
2017-05-03T05:31:46.281Z,1472
2017-05-03T05:32:11.845Z,1444
2017-05-03T05:32:37.366Z,1392
2017-05-03T05:33:02.878Z,1228
2017-05-03T05:33:28.407Z,1060
2017-05-03T05:33:53.897Z,1056
2017-05-03T05:34:19.421Z,1084
2017-05-03T05:34:44.925Z,1048
2017-05-03T05:35:10.467Z,1056
2017-05-03T05:35:35.945Z,1044
2017-05-03T05:36:01.446Z,968
2017-05-03T05:36:26.952Z,904
2017-05-03T05:36:52.563Z,848
2017-05-03T05:37:18.116Z,860
2017-05-03T05:37:43.594Z,948
2017-05-03T05:38:09.113Z,940
2017-05-03T05:38:34.573Z,960
2017-05-03T05:39:00.126Z,976
2017-05-03T05:39:25.604Z,984
2017-05-03T05:39:51.133Z,992
2017-05-03T05:40:16.590Z,988
2017-05-03T05:40:42.113Z,948
2017-05-03T05:41:07.622Z,988
2017-05-03T05:41:33.149Z,1060
2017-05-03T05:41:58.987Z,1108
2017-05-03T05:42:24.323Z,1192
2017-05-03T05:42:50.030Z,1276
2017-05-03T05:43:15.484Z,1404
2017-05-03T05:43:40.977Z,1540
2017-05-03T05:44:06.476Z,1640
2017-05-03T05:44:31.916Z,1708
2017-05-03T05:44:57.450Z,1832
2017-05-03T05:45:22.962Z,1968
2017-05-03T05:45:48.526Z,2088
2017-05-03T05:46:14.058Z,2180
2017-05-03T05:46:39.547Z,2224
2017-05-03T05:47:05.032Z,2256
2017-05-03T05:47:30.511Z,2268
2017-05-03T05:47:56.003Z,2376
2017-05-03T05:48:21.505Z,2480
2017-05-03T05:48:47.019Z,2520
2017-05-03T05:49:12.586Z,2636
2017-05-03T05:49:38.135Z,2704
2017-05-03T05:50:03.636Z,2740
2017-05-03T05:50:29.127Z,2752
2017-05-03T05:50:54.633Z,2804
2017-05-03T05:51:20.109Z,2848
2017-05-03T05:51:45.582Z,2936
2017-05-03T05:52:11.087Z,3012
2017-05-03T05:52:36.598Z,3088
2017-05-03T05:53:02.090Z,3120
2017-05-03T05:53:27.583Z,3176
2017-05-03T05:53:53.040Z,3236
2017-05-03T05:54:18.506Z,3264
2017-05-03T05:54:43.999Z,3376
2017-05-03T05:55:09.500Z,3468
2017-05-03T05:55:34.982Z,3500
2017-05-03T05:56:00.460Z,3540
2017-05-03T05:56:25.924Z,3520
2017-05-03T05:56:51.397Z,3524
2017-05-03T05:57:16.901Z,3504
2017-05-03T05:57:42.403Z,3640
2017-05-03T05:58:07.860Z,3756
2017-05-03T05:58:33.339Z,3840
2017-05-03T05:58:58.834Z,3800
2017-05-03T05:59:24.318Z,3712
2017-05-03T05:59:49.820Z,3532
2017-05-03T06:00:15.267Z,3444
2017-05-03T06:00:40.755Z,3664
2017-05-03T06:01:06.229Z,3864
2017-05-03T06:01:31.722Z,3956
2017-05-03T06:01:57.216Z,4040
2017-05-03T06:02:22.673Z,4080
2017-05-03T06:02:48.177Z,4036
2017-05-03T06:03:13.680Z,4000
2017-05-03T06:03:39.213Z,3892
2017-05-03T06:04:04.691Z,4036
2017-05-03T06:04:30.141Z,4020
2017-05-03T06:04:55.602Z,4168
2017-05-03T06:05:21.172Z,4192
2017-05-03T06:05:46.679Z,3996
2017-05-03T06:06:12.101Z,4256
2017-05-03T06:06:37.591Z,4520
2017-05-03T06:07:03.100Z,4664
2017-05-03T06:07:28.590Z,4712
2017-05-03T06:07:54.082Z,4672
2017-05-03T06:08:19.545Z,4684
2017-05-03T06:08:45.078Z,4660
2017-05-03T06:09:10.556Z,4460
2017-05-03T06:09:36.032Z,4272
2017-05-03T06:10:01.539Z,4200
2017-05-03T06:10:27.027Z,4204
2017-05-03T06:10:52.522Z,4248
2017-05-03T06:11:18.006Z,4352
2017-05-03T06:11:43.594Z,4432
2017-05-03T06:12:09.140Z,4532
2017-05-03T06:12:34.655Z,4468
2017-05-03T06:13:00.173Z,4384
2017-05-03T06:13:25.684Z,4492
2017-05-03T06:13:51.161Z,4328
2017-05-03T06:14:16.642Z,4052
2017-05-03T06:14:42.099Z,3976
2017-05-03T06:15:07.595Z,3952
2017-05-03T06:15:33.098Z,4032
2017-05-03T06:15:58.617Z,3812
2017-05-03T06:16:24.064Z,3688
2017-05-03T06:16:49.544Z,3640
2017-05-03T06:17:14.978Z,3908
2017-05-03T06:17:40.453Z,3976
2017-05-03T06:18:05.922Z,3828
2017-05-03T06:18:31.390Z,3616
2017-05-03T06:18:56.879Z,3672
2017-05-03T06:19:22.379Z,3532
2017-05-03T06:19:47.890Z,3484
2017-05-03T06:20:13.385Z,3632
2017-05-03T06:20:38.879Z,3820
2017-05-03T06:21:04.376Z,4020
2017-05-03T06:21:29.878Z,3920
2017-05-03T06:21:55.366Z,3876
2017-05-03T06:22:20.852Z,4012
2017-05-03T06:22:46.339Z,3948
2017-05-03T06:23:11.918Z,3792
2017-05-03T06:23:37.404Z,4032
2017-05-03T06:24:02.882Z,4204
2017-05-03T06:24:28.337Z,4444
2017-05-03T06:24:53.812Z,4520
2017-05-03T06:25:19.313Z,4360
2017-05-03T06:25:44.748Z,4044
2017-05-03T06:26:10.232Z,3764
2017-05-03T06:26:35.686Z,3672
2017-05-03T06:27:01.151Z,3796
2017-05-03T06:27:26.607Z,3748
2017-05-03T06:27:52.104Z,3600
2017-05-03T06:28:17.607Z,3672
2017-05-03T06:28:43.085Z,3784
2017-05-03T06:29:08.556Z,4000
2017-05-03T06:29:34.021Z,4436
2017-05-03T06:29:59.540Z,4652
2017-05-03T06:30:25.048Z,4864
2017-05-03T06:30:50.535Z,5148
2017-05-03T06:31:16.020Z,5252
2017-05-03T06:31:41.526Z,5436
2017-05-03T06:32:07.014Z,5904
2017-05-03T06:32:32.463Z,6476
2017-05-03T06:32:57.939Z,6772
2017-05-03T06:33:23.413Z,7140
2017-05-03T06:33:48.916Z,7340
2017-05-03T06:34:14.390Z,7520
2017-05-03T06:34:39.895Z,7832
2017-05-03T06:35:05.362Z,7800
2017-05-03T06:35:30.835Z,7908
2017-05-03T06:35:56.406Z,8384
2017-05-03T06:36:21.848Z,8720
2017-05-03T06:36:47.313Z,8744
2017-05-03T06:37:12.786Z,8696
2017-05-03T06:37:38.269Z,8452
2017-05-03T06:38:03.742Z,8432
2017-05-03T06:38:29.229Z,8592
2017-05-03T06:38:54.698Z,8756
2017-05-03T06:39:20.199Z,8796
2017-05-03T06:39:45.670Z,9464
2017-05-03T06:40:11.170Z,9780
2017-05-03T06:40:36.615Z,9440
2017-05-03T06:41:02.094Z,9796
2017-05-03T06:41:27.585Z,10256
2017-05-03T06:41:53.138Z,10512
2017-05-03T06:42:18.621Z,11052
2017-05-03T06:42:44.115Z,11412
2017-05-03T06:43:09.597Z,11496
2017-05-03T06:43:35.086Z,11860
2017-05-03T06:44:00.554Z,11524
2017-05-03T06:44:26.056Z,10832
2017-05-03T06:44:51.535Z,10428
2017-05-03T06:45:16.996Z,10444
2017-05-03T06:45:42.452Z,10020
2017-05-03T06:46:07.981Z,9716
2017-05-03T06:46:33.452Z,8924
2017-05-03T06:46:58.947Z,9036
2017-05-03T06:47:24.429Z,9600
2017-05-03T06:47:49.932Z,10076
2017-05-03T06:48:15.419Z,10244
2017-05-03T06:48:40.972Z,10596
2017-05-03T06:49:06.435Z,10432
2017-05-03T06:49:31.917Z,9864
2017-05-03T06:49:57.414Z,9992
2017-05-03T06:50:22.913Z,10212
2017-05-03T06:50:48.390Z,10384
2017-05-03T06:51:13.854Z,10424
2017-05-03T06:51:39.292Z,10480
2017-05-03T06:52:04.802Z,10448
2017-05-03T06:52:30.255Z,10692
2017-05-03T06:52:55.693Z,10800
2017-05-03T06:53:21.176Z,10876
2017-05-03T06:53:46.664Z,10740
2017-05-03T06:54:12.138Z,10736
2017-05-03T06:54:37.604Z,10916
2017-05-03T06:55:03.107Z,10784
2017-05-03T06:55:28.570Z,10820
2017-05-03T06:55:54.021Z,11016
2017-05-03T06:56:19.485Z,11144
2017-05-03T06:56:44.975Z,11180
2017-05-03T06:57:10.490Z,10828
2017-05-03T06:57:36.028Z,11092
2017-05-03T06:58:01.492Z,11064
2017-05-03T06:58:26.978Z,11592
2017-05-03T06:58:52.479Z,12052
2017-05-03T06:59:17.934Z,12208
2017-05-03T06:59:43.408Z,12120
2017-05-03T07:00:08.901Z,12048
2017-05-03T07:00:34.357Z,11704
2017-05-03T07:00:59.878Z,11220
2017-05-03T07:01:25.320Z,11000
2017-05-03T07:01:50.780Z,10752
2017-05-03T07:02:16.270Z,10472
2017-05-03T07:02:41.749Z,10068
2017-05-03T07:03:07.190Z,9736
2017-05-03T07:03:32.644Z,9308
2017-05-03T07:03:58.122Z,8960
2017-05-03T07:04:23.635Z,8464
2017-05-03T07:04:49.104Z,8228
2017-05-03T07:05:14.569Z,8360
2017-05-03T07:05:40.046Z,8600
2017-05-03T07:06:05.498Z,8476
2017-05-03T07:06:30.981Z,8060
2017-05-03T07:06:56.461Z,8636
2017-05-03T07:07:21.931Z,8756
2017-05-03T07:07:47.438Z,9016
2017-05-03T07:08:12.962Z,8728
2017-05-03T07:08:38.443Z,8956
2017-05-03T07:09:03.929Z,9792
2017-05-03T07:09:29.384Z,10032
2017-05-03T07:09:54.873Z,10400
2017-05-03T07:10:20.388Z,10544
2017-05-03T07:10:45.826Z,10648
2017-05-03T07:11:11.334Z,10444
2017-05-03T07:11:36.810Z,10436
2017-05-03T07:12:02.302Z,9984
2017-05-03T07:12:27.748Z,9352
2017-05-03T07:12:53.239Z,8852
2017-05-03T07:13:18.769Z,8908
2017-05-03T07:13:44.221Z,9428
2017-05-03T07:14:09.708Z,9968
2017-05-03T07:14:35.176Z,9884
2017-05-03T07:15:00.702Z,9004
2017-05-03T07:15:26.199Z,8284
2017-05-03T07:15:51.649Z,8564
2017-05-03T07:16:17.121Z,8828
2017-05-03T07:16:42.620Z,8744
2017-05-03T07:17:08.085Z,8268
2017-05-03T07:17:33.580Z,7708
2017-05-03T07:17:59.072Z,7288
2017-05-03T07:18:24.554Z,6928
2017-05-03T07:18:50.034Z,7344
2017-05-03T07:19:15.501Z,7696
2017-05-03T07:19:40.949Z,7732
2017-05-03T07:20:06.386Z,8216
2017-05-03T07:20:31.859Z,8432
2017-05-03T07:20:57.312Z,8888
2017-05-03T07:21:22.790Z,9764
2017-05-03T07:21:48.303Z,10324
2017-05-03T07:22:13.754Z,10568
2017-05-03T07:22:39.259Z,10600
2017-05-03T07:23:04.741Z,10528
2017-05-03T07:23:30.177Z,10732
2017-05-03T07:23:55.627Z,11040
2017-05-03T07:24:21.106Z,11532
2017-05-03T07:24:46.579Z,11768
2017-05-03T07:25:12.087Z,11996
2017-05-03T07:25:37.548Z,12256
2017-05-03T07:26:03.061Z,12364
2017-05-03T07:26:28.535Z,12304
2017-05-03T07:26:54.016Z,11928
2017-05-03T07:27:19.505Z,11296
2017-05-03T07:27:45.002Z,11112
2017-05-03T07:28:10.471Z,11624
2017-05-03T07:28:35.967Z,12380
2017-05-03T07:29:01.440Z,13404
2017-05-03T07:29:26.903Z,14276
2017-05-03T07:29:52.366Z,14928
2017-05-03T07:30:17.855Z,15252
2017-05-03T07:30:43.336Z,15152
2017-05-03T07:31:08.816Z,14824
2017-05-03T07:31:34.255Z,14728
2017-05-03T07:31:59.762Z,14596
2017-05-03T07:32:25.219Z,14660
2017-05-03T07:32:50.745Z,14804
2017-05-03T07:33:16.216Z,15020
2017-05-03T07:33:41.671Z,14892
2017-05-03T07:34:07.139Z,15088
2017-05-03T07:34:32.627Z,15224
2017-05-03T07:34:58.107Z,15128
2017-05-03T07:35:23.582Z,15412
2017-05-03T07:35:49.073Z,15952
2017-05-03T07:36:14.583Z,16280
2017-05-03T07:36:40.042Z,16060
2017-05-03T07:37:05.524Z,15720
2017-05-03T07:38:29.554Z,14232
2017-05-03T07:38:55.039Z,13648
2017-05-03T07:39:20.545Z,13368
2017-05-03T07:39:46.000Z,12828
2017-05-03T07:40:11.482Z,12224
2017-05-03T07:40:36.928Z,12124
2017-05-03T07:41:50.232Z,11100
2017-05-03T07:42:15.705Z,10864
2017-05-03T07:42:41.193Z,10936
2017-05-03T07:43:06.694Z,10760
2017-05-03T07:43:32.147Z,10800
2017-05-03T07:43:57.604Z,10516
2017-05-03T07:44:23.083Z,9860
2017-05-03T07:44:48.530Z,9212
2017-05-03T07:45:14.061Z,8816
2017-05-03T07:45:39.603Z,8904
2017-05-03T07:46:05.077Z,9260
2017-05-03T07:46:30.546Z,9504
2017-05-03T07:46:56.115Z,9660
2017-05-03T07:47:21.567Z,9320
2017-05-03T07:47:47.062Z,8648
2017-05-03T07:48:12.551Z,8284
2017-05-03T07:48:38.045Z,8316
2017-05-03T07:49:03.542Z,8188
2017-05-03T07:49:29.019Z,7844
2017-05-03T07:49:54.502Z,7748
2017-05-03T07:50:19.940Z,7820
2017-05-03T07:50:45.410Z,8080
2017-05-03T07:51:10.943Z,8288
2017-05-03T07:51:36.582Z,8540
2017-05-03T07:52:02.116Z,8804
2017-05-03T07:52:27.585Z,9268
2017-05-03T07:52:53.059Z,9576
2017-05-03T07:53:18.552Z,10180
2017-05-03T07:53:44.027Z,10496
2017-05-03T07:54:09.516Z,10792
2017-05-03T07:54:35.200Z,11044
2017-05-03T07:55:00.660Z,11076
2017-05-03T07:55:26.128Z,10600
2017-05-03T07:55:51.619Z,10276
2017-05-03T07:56:17.098Z,10244
2017-05-03T07:56:42.579Z,10416
2017-05-03T07:57:08.056Z,10712
2017-05-03T07:57:33.602Z,10560
2017-05-03T07:57:59.080Z,9652
2017-05-03T07:58:24.537Z,8992
2017-05-03T07:58:50.026Z,8528
2017-05-03T07:59:15.543Z,8312
2017-05-03T07:59:41.015Z,8500
2017-05-03T08:00:06.538Z,9020
2017-05-03T08:00:31.969Z,9836
2017-05-03T08:00:57.448Z,10700
2017-05-03T08:01:22.927Z,11468
2017-05-03T08:01:48.422Z,11580
2017-05-03T08:02:13.920Z,10432
2017-05-03T08:02:39.397Z,9408
2017-05-03T08:03:04.878Z,8928
2017-05-03T08:03:30.402Z,9432
2017-05-03T08:03:55.910Z,10432
2017-05-03T08:04:21.364Z,11252
2017-05-03T08:04:46.812Z,12332
2017-05-03T08:05:12.285Z,13220
2017-05-03T08:05:37.768Z,14216
2017-05-03T08:06:03.229Z,15292
2017-05-03T08:06:28.707Z,15624
2017-05-03T08:06:54.198Z,15264
2017-05-03T08:07:19.653Z,14216
2017-05-03T08:07:45.106Z,13328
2017-05-03T08:08:10.564Z,12780
2017-05-03T08:08:36.058Z,12172
2017-05-03T08:09:01.533Z,11468
2017-05-03T08:09:26.997Z,10780
2017-05-03T08:09:52.553Z,10128
2017-05-03T08:10:17.990Z,9388
2017-05-03T08:10:43.435Z,8972
2017-05-03T08:11:08.914Z,8452
2017-05-03T08:11:34.380Z,7656
2017-05-03T08:11:59.864Z,7280
2017-05-03T08:12:25.335Z,7132
2017-05-03T08:12:50.836Z,6948
2017-05-03T08:13:16.357Z,6772
2017-05-03T08:13:41.844Z,6420
2017-05-03T08:14:07.350Z,6260
2017-05-03T08:14:32.819Z,6276
2017-05-03T08:14:58.329Z,6320
2017-05-03T08:15:23.767Z,6760
2017-05-03T08:15:49.241Z,7252
2017-05-03T08:16:14.741Z,7948
2017-05-03T08:16:40.210Z,8628
2017-05-03T08:17:05.661Z,9032
2017-05-03T08:17:31.152Z,8968
2017-05-03T08:17:56.642Z,8824
2017-05-03T08:18:22.127Z,8572
2017-05-03T08:18:47.607Z,8344
2017-05-03T08:19:13.085Z,8288
2017-05-03T08:19:38.602Z,8364
2017-05-03T08:20:04.076Z,8720
2017-05-03T08:20:29.538Z,9184
2017-05-03T08:20:54.975Z,8996
2017-05-03T08:21:20.455Z,8888
2017-05-03T08:21:45.936Z,9408
2017-05-03T08:22:11.439Z,10028
2017-05-03T08:22:36.922Z,10648
2017-05-03T08:23:02.390Z,11092
2017-05-03T08:23:27.867Z,11184
2017-05-03T08:23:53.335Z,11320
2017-05-03T08:24:18.790Z,12016
2017-05-03T08:24:44.341Z,13740
2017-05-03T08:25:09.811Z,14800
2017-05-03T08:25:35.303Z,15052
2017-05-03T08:26:00.782Z,16048
2017-05-03T08:26:26.248Z,17760
2017-05-03T08:26:51.768Z,18624
2017-05-03T08:27:17.226Z,19104
2017-05-03T08:27:42.721Z,19392
2017-05-03T08:28:08.164Z,19328
2017-05-03T08:28:33.638Z,19104
2017-05-03T08:28:59.118Z,18784
2017-05-03T08:29:24.621Z,18752
2017-05-03T08:29:50.089Z,19168
2017-05-03T08:30:15.644Z,19680
2017-05-03T08:30:41.132Z,19744
2017-05-03T08:31:06.623Z,19776
2017-05-03T08:31:32.127Z,19744
2017-05-03T08:31:57.580Z,20256
2017-05-03T08:32:23.070Z,20256
2017-05-03T08:32:48.537Z,20544
2017-05-03T08:33:14.006Z,21120
2017-05-03T08:33:39.510Z,20064
2017-05-03T08:34:05.021Z,18528
2017-05-03T08:34:30.575Z,17248
2017-05-03T08:34:56.036Z,16684
2017-05-03T08:35:21.527Z,17184
2017-05-03T08:35:46.995Z,17472
2017-05-03T08:36:12.529Z,16492
2017-05-03T08:36:38.002Z,15496
2017-05-03T08:37:03.520Z,15016
2017-05-03T08:37:29.031Z,14660
2017-05-03T08:37:54.565Z,14372
2017-05-03T08:38:19.988Z,14288
2017-05-03T08:38:45.514Z,14052
2017-05-03T08:39:10.980Z,13460
2017-05-03T08:39:36.461Z,13460
2017-05-03T08:40:01.918Z,13548
2017-05-03T08:40:27.449Z,14500
2017-05-03T08:40:52.908Z,15992
2017-05-03T08:41:18.417Z,17696
2017-05-03T08:41:43.854Z,16236
2017-05-03T08:42:09.364Z,14388
2017-05-03T08:42:34.816Z,13292
2017-05-03T08:43:00.309Z,12544
2017-05-03T08:43:25.800Z,12108
2017-05-03T08:43:51.265Z,12356
2017-05-03T08:44:16.737Z,12160
2017-05-03T08:44:42.194Z,11532
2017-05-03T08:45:07.728Z,11552
2017-05-03T08:45:33.145Z,12408
2017-05-03T08:45:58.634Z,12740
2017-05-03T08:46:24.072Z,12248
2017-05-03T08:46:49.557Z,11532
2017-05-03T08:47:15.021Z,11004
2017-05-03T08:47:40.511Z,10768
2017-05-03T08:48:05.978Z,11120
2017-05-03T08:48:31.475Z,11904
2017-05-03T08:48:56.956Z,13204
2017-05-03T08:49:22.461Z,14364
2017-05-03T08:49:47.897Z,14904
2017-05-03T08:50:13.400Z,15256
2017-05-03T08:50:38.852Z,15084
2017-05-03T08:51:04.365Z,14764
2017-05-03T08:51:29.864Z,15164
2017-05-03T08:51:55.346Z,15788
2017-05-03T08:52:20.820Z,16196
2017-05-03T08:52:46.309Z,16460
2017-05-03T08:53:11.776Z,16960
2017-05-03T08:53:37.285Z,17248
2017-05-03T08:54:02.765Z,16832
2017-05-03T08:54:28.245Z,16168
2017-05-03T08:54:53.728Z,16172
2017-05-03T08:55:19.169Z,15768
2017-05-03T08:55:44.645Z,14964
2017-05-03T08:56:10.112Z,15228
2017-05-03T08:56:35.588Z,15236
2017-05-03T08:57:01.096Z,14700
2017-05-03T08:57:26.587Z,13220
2017-05-03T08:57:52.090Z,12016
2017-05-03T08:58:17.659Z,11808
2017-05-03T08:58:43.115Z,12324
2017-05-03T08:59:08.630Z,12888
2017-05-03T08:59:34.217Z,12936
2017-05-03T08:59:59.820Z,12588
2017-05-03T09:00:25.257Z,12364
2017-05-03T09:00:50.706Z,12524
2017-05-03T09:01:58.941Z,13012
2017-05-03T09:02:24.413Z,13600
2017-05-03T09:02:49.892Z,13736
2017-05-03T09:03:15.352Z,13964
2017-05-03T09:03:40.843Z,14632
2017-05-03T09:04:06.389Z,15492
2017-05-03T09:04:31.859Z,16304
2017-05-03T09:04:57.326Z,16400
2017-05-03T09:05:22.826Z,16244
2017-05-03T09:05:48.357Z,15556
2017-05-03T09:06:13.819Z,15244
2017-05-03T09:06:39.273Z,15260
2017-05-03T09:07:04.740Z,15644
2017-05-03T09:07:30.211Z,16464
2017-05-03T09:07:55.673Z,17280
2017-05-03T09:08:21.147Z,16348
2017-05-03T09:08:46.611Z,15376
2017-05-03T09:09:12.167Z,15176
2017-05-03T09:09:37.614Z,15932
2017-05-03T09:10:03.139Z,17152
2017-05-03T09:10:28.597Z,17664
2017-05-03T09:10:54.104Z,17792
2017-05-03T09:11:19.548Z,17472
2017-05-03T09:11:45.043Z,17216
2017-05-03T09:12:10.531Z,17472
2017-05-03T09:12:36.020Z,17984
2017-05-03T09:13:01.504Z,18592
2017-05-03T09:13:27.000Z,18560
2017-05-03T09:13:52.477Z,18208
2017-05-03T09:14:17.962Z,17984
2017-05-03T09:14:43.402Z,18016
2017-05-03T09:15:08.870Z,18304
2017-05-03T09:15:34.388Z,18592
2017-05-03T09:15:59.889Z,19040
2017-05-03T09:16:25.379Z,19200
2017-05-03T09:16:50.864Z,19424
2017-05-03T09:17:16.359Z,20000
2017-05-03T09:17:41.853Z,20416
2017-05-03T09:18:07.400Z,20576
2017-05-03T09:18:32.872Z,20128
2017-05-03T09:18:58.325Z,18944
2017-05-03T09:19:23.823Z,18048
2017-05-03T09:19:49.336Z,17312
2017-05-03T09:20:14.826Z,16672
2017-05-03T09:20:40.329Z,16224
2017-05-03T09:21:05.819Z,15892
2017-05-03T09:21:31.329Z,15104
2017-05-03T09:21:56.823Z,14204
2017-05-03T09:22:22.352Z,13024
2017-05-03T09:22:47.841Z,12296
2017-05-03T09:23:13.325Z,12224
2017-05-03T09:23:38.814Z,12540
2017-05-03T09:24:04.316Z,13124
2017-05-03T09:24:29.763Z,13620
2017-05-03T09:24:55.240Z,14044
2017-05-03T09:25:20.740Z,14688
2017-05-03T09:25:46.203Z,15284
2017-05-03T09:26:11.713Z,15100
2017-05-03T09:26:37.178Z,14404
2017-05-03T09:27:02.736Z,13668
2017-05-03T09:27:28.217Z,13412
2017-05-03T09:27:53.711Z,13400
2017-05-03T09:28:19.202Z,14032
2017-05-03T09:28:44.687Z,15108
2017-05-03T09:29:10.146Z,15936
2017-05-03T09:29:35.614Z,16356
2017-05-03T09:30:01.086Z,16596
2017-05-03T09:30:26.577Z,16864
2017-05-03T09:30:52.068Z,16336
2017-05-03T09:31:17.521Z,15740
2017-05-03T09:31:43.034Z,14760
2017-05-03T09:32:08.492Z,13720
2017-05-03T09:32:34.002Z,12676
2017-05-03T09:32:59.454Z,12252
2017-05-03T09:33:24.914Z,13184
2017-05-03T09:33:50.416Z,13748
2017-05-03T09:34:15.884Z,14060
2017-05-03T09:34:41.344Z,13504
2017-05-03T09:35:06.823Z,13316
2017-05-03T09:35:32.321Z,13204
2017-05-03T09:35:57.777Z,13052
2017-05-03T09:36:23.235Z,12820
2017-05-03T09:36:48.727Z,12436
2017-05-03T09:37:14.230Z,12948
2017-05-03T09:37:39.708Z,14068
2017-05-03T09:38:05.174Z,14180
2017-05-03T09:38:30.642Z,13912
2017-05-03T09:38:56.101Z,13572
2017-05-03T09:39:21.586Z,13408
2017-05-03T09:39:47.059Z,13672
2017-05-03T09:40:12.557Z,13976
2017-05-03T09:40:38.016Z,14168
2017-05-03T09:41:03.480Z,14392
2017-05-03T09:41:28.972Z,14368
2017-05-03T09:41:54.441Z,14624